Kenilworth, Illinois
Current Conditions -  °F | °C
As of 10:52 PM on Thursday 30 Oct 2014 (Local Time) from KPWK Reporting Station
Overcast Overcast  
Wind Chill: 45°   Ceiling: 11000
Heat Index: 48°   Visibility: 10mi
Dew Point: 35°   Wind: 6mph
Humidity: 61%   Direction: 270°W
Pressure: 30.06"   Gusts: NA
Location:  42.09°N, 87.72°W
Report Text: KPWK 310352Z AUTO 27005KT 10SM FEW050 OVC110 09/02 A3006 RMK AO2 SLP183 T00890017
Loading
Personal Weather Stations






























Interactive Weather Map
Tropical Storm Tracking
New forecast layout! Learn more

10-Day Weather Forecast

Advertisements
Track Severe Weather on mobile